Time;durP1;ratioP1;P1;durP2;ratioP2;P2;SDS_P1;SDS_P2;PMS_P1;PMS_P2;Temp;Humidity;BMP_temperature;BMP_pressure;BME280_temperature;BME280_humidity;BME280_pressure;Samples;Min_cycle;Max_cycle;Signal;HPM_P1;HPM_P2
2023/10/15 04:00:35;;;;;;;2.42;1.08;;;7.40;99.90;;;;;;5996091;23;20594;31
2023/10/15 04:03:22;;;;;;;1.58;1.00;;;7.40;99.90;;;;;;4914310;29;20222;-72
2023/10/15 04:05:58;;;;;;;0.77;0.77;;;7.40;99.90;;;;;;4908120;29;20215;-72
2023/10/15 04:08:25;;;;;;;0.80;0.80;;;7.40;99.90;;;;;;4915943;29;20210;-72
2023/10/15 04:10:56;;;;;;;0.95;0.50;;;7.40;99.90;;;;;;4915150;29;20234;-72
2023/10/15 04:13:26;;;;;;;1.70;1.05;;;7.40;99.90;;;;;;4916241;29;20226;-72
2023/10/15 04:15:55;;;;;;;0.63;0.63;;;7.40;99.90;;;;;;4900477;29;20243;-73
2023/10/15 04:18:23;;;;;;;1.35;0.90;;;7.40;99.90;;;;;;4916155;29;20234;-73
2023/10/15 04:20:50;;;;;;;0.50;0.50;;;7.40;99.90;;;;;;4916102;29;20333;-73
2023/10/15 04:23:31;;;;;;;2.15;1.02;;;7.50;99.90;;;;;;4916304;29;20545;-73
2023/10/15 04:26:00;;;;;;;0.57;0.57;;;7.50;99.90;;;;;;4908297;29;20210;-73
2023/10/15 04:28:28;;;;;;;0.68;0.68;;;7.40;99.90;;;;;;4916546;29;20659;-73
2023/10/15 04:31:00;;;;;;;1.75;0.60;;;7.40;99.90;;;;;;4915164;29;20235;-73
2023/10/15 04:33:30;;;;;;;2.65;0.75;;;7.50;99.90;;;;;;4916457;29;20221;-73
2023/10/15 04:35:57;;;;;;;0.40;0.40;;;7.40;99.90;;;;;;4916341;29;20214;-74
2023/10/15 04:38:28;;;;;;;1.20;0.52;;;7.50;99.90;;;;;;4916366;29;20234;-74
2023/10/15 04:41:03;;;;;;;1.65;0.80;;;7.40;99.90;;;;;;4916847;29;20243;-74
2023/10/15 04:46:26;;;;;;;4.35;0.90;;;7.40;99.90;;;;;;4916033;29;20210;-73
2023/10/15 04:48:55;;;;;;;4.75;1.25;;;7.40;99.90;;;;;;4916421;29;20653;-73
2023/10/15 04:51:38;;;;;;;1.75;1.05;;;7.30;99.90;;;;;;4916787;29;20305;-73
2023/10/15 04:54:07;;;;;;;1.15;0.75;;;7.30;99.90;;;;;;4916661;29;20210;-73
2023/10/15 04:56:34;;;;;;;0.85;0.30;;;7.30;99.90;;;;;;4916749;29;20207;-73
2023/10/15 04:59:01;;;;;;;1.05;0.57;;;7.30;99.90;;;;;;4914852;29;20231;-73
2023/10/15 05:01:34;;;;;;;1.45;0.60;;;7.20;99.90;;;;;;4910499;29;20608;-73
2023/10/15 05:04:01;;;;;;;0.88;0.88;;;7.20;99.90;;;;;;4916583;29;20206;-73
2023/10/15 05:06:29;;;;;;;1.58;0.75;;;7.20;99.90;;;;;;4915838;29;20518;-73
2023/10/15 05:08:59;;;;;;;0.73;0.73;;;7.20;99.90;;;;;;4916323;29;20639;-73
2023/10/15 05:11:28;;;;;;;0.50;0.50;;;7.20;99.90;;;;;;4916320;29;20265;-73
2023/10/15 05:13:55;;;;;;;0.30;0.30;;;7.20;99.90;;;;;;4915985;29;20277;-73
2023/10/15 05:16:22;;;;;;;0.82;0.40;;;7.20;99.90;;;;;;4908296;29;20214;-73
2023/10/15 05:18:58;;;;;;;0.35;0.35;;;7.20;99.90;;;;;;4916129;29;20325;-73
2023/10/15 05:21:29;;;;;;;0.47;0.47;;;7.20;99.90;;;;;;4903892;29;20320;-73
2023/10/15 05:23:57;;;;;;;1.38;0.32;;;7.20;99.90;;;;;;4920668;29;20214;-73
2023/10/15 05:26:25;;;;;;;0.55;0.55;;;7.20;99.90;;;;;;4920240;29;20214;-73
2023/10/15 05:29:08;;;;;;;1.20;0.60;;;7.20;99.90;;;;;;4919897;29;20229;-73
2023/10/15 05:31:35;;;;;;;0.60;0.60;;;7.20;99.90;;;;;;4919442;29;20776;-73
2023/10/15 05:34:04;;;;;;;0.47;0.47;;;7.20;99.90;;;;;;4919508;29;20222;-73
2023/10/15 05:36:31;;;;;;;0.63;0.63;;;7.20;99.90;;;;;;4919808;29;20613;-75
2023/10/15 05:39:01;;;;;;;0.63;0.63;;;7.20;99.90;;;;;;4911972;29;20232;-73
2023/10/15 05:41:31;;;;;;;1.95;0.47;;;7.30;99.90;;;;;;4919189;29;20239;-73
2023/10/15 05:44:01;;;;;;;1.05;0.60;;;7.30;99.90;;;;;;4919487;29;20214;-74
2023/10/15 05:46:28;;;;;;;1.48;0.57;;;7.30;99.90;;;;;;4919411;29;20214;-73
2023/10/15 05:49:02;;;;;;;4.13;0.93;;;7.30;99.90;;;;;;4919817;29;20282;-73
2023/10/15 05:51:33;;;;;;;7.55;0.90;;;7.30;99.90;;;;;;4919312;29;20234;-73
2023/10/15 05:54:00;;;;;;;2.17;1.05;;;7.30;99.90;;;;;;4911502;29;20240;-73
2023/10/15 05:56:28;;;;;;;3.15;1.60;;;7.30;99.90;;;;;;4911365;29;20229;-73
2023/10/15 05:58:55;;;;;;;5.97;1.58;;;7.30;99.90;;;;;;4918456;29;20238;-73
2023/10/15 06:01:21;;;;;;;1.60;1.50;;;7.30;99.90;;;;;;4918708;29;20261;-73
2023/10/15 06:03:48;;;;;;;4.40;1.83;;;7.30;99.90;;;;;;4918201;29;20217;-73
2023/10/15 06:06:15;;;;;;;3.50;1.67;;;7.30;99.90;;;;;;4917903;29;20222;-73
2023/10/15 06:08:43;;;;;;;1.40;1.17;;;7.30;99.90;;;;;;4917949;29;20218;-73
2023/10/15 06:11:10;;;;;;;0.88;0.88;;;7.30;99.90;;;;;;4917837;29;20274;-73
2023/10/15 06:13:37;;;;;;;2.53;1.33;;;7.20;99.90;;;;;;4917769;29;20226;-73
2023/10/15 06:16:04;;;;;;;0.88;0.88;;;7.20;99.90;;;;;;4917569;29;20217;-73
2023/10/15 06:18:31;;;;;;;0.73;0.73;;;7.20;99.90;;;;;;4917843;29;20266;-73
2023/10/15 06:20:59;;;;;;;0.77;0.52;;;7.20;99.90;;;;;;4917797;29;20238;-73
2023/10/15 06:23:26;;;;;;;1.30;1.30;;;7.10;99.90;;;;;;4917976;29;20238;-73
2023/10/15 06:25:54;;;;;;;9.82;4.18;;;7.10;99.90;;;;;;4917798;29;20233;-73
2023/10/15 06:28:22;;;;;;;0.98;0.98;;;7.10;99.90;;;;;;4917994;29;20215;-73
2023/10/15 06:30:48;;;;;;;4.55;1.15;;;7.10;99.90;;;;;;4917950;29;20234;-73
2023/10/15 06:33:16;;;;;;;5.40;1.65;;;7.10;99.90;;;;;;4917306;29;20226;-73
2023/10/15 06:35:43;;;;;;;0.73;0.73;;;7.10;99.90;;;;;;4917790;29;20210;-73
2023/10/15 06:38:09;;;;;;;0.85;0.55;;;7.10;99.90;;;;;;4917554;29;20241;-73
2023/10/15 06:40:38;;;;;;;4.03;3.67;;;7.10;99.90;;;;;;4917563;29;20610;-73
2023/10/15 06:43:07;;;;;;;0.95;0.95;;;7.10;99.90;;;;;;4918119;29;20219;-73
2023/10/15 06:45:34;;;;;;;1.23;1.13;;;7.10;99.90;;;;;;4917707;29;20210;-73
2023/10/15 06:48:02;;;;;;;0.65;0.63;;;7.10;99.90;;;;;;4917597;29;20225;-73
2023/10/15 06:50:29;;;;;;;0.77;0.77;;;7.10;99.90;;;;;;4917576;29;20238;-73
2023/10/15 06:52:56;;;;;;;2.97;0.70;;;7.00;99.90;;;;;;4917314;29;20218;-73
2023/10/15 06:55:23;;;;;;;0.68;0.60;;;7.10;99.90;;;;;;4917149;29;20673;-72
2023/10/15 06:57:50;;;;;;;2.65;1.50;;;7.10;99.90;;;;;;4917449;29;20237;-73
2023/10/15 07:00:25;;;;;;;0.70;0.70;;;7.10;99.90;;;;;;4917056;29;20241;-73
2023/10/15 07:02:52;;;;;;;1.02;0.90;;;7.10;99.90;;;;;;4917467;29;20305;-73
2023/10/15 07:05:20;;;;;;;1.00;1.00;;;7.10;99.90;;;;;;4917276;29;20223;-73
2023/10/15 07:07:47;;;;;;;0.63;0.60;;;7.10;99.90;;;;;;4917228;29;20701;-73
2023/10/15 07:10:15;;;;;;;0.80;0.80;;;7.10;99.90;;;;;;4917267;29;20590;-73
2023/10/15 07:12:44;;;;;;;1.42;0.68;;;7.10;99.90;;;;;;4917448;29;20211;-73
2023/10/15 07:15:13;;;;;;;1.75;0.60;;;7.10;99.90;;;;;;4917133;29;20258;-73
2023/10/15 07:17:41;;;;;;;1.60;0.98;;;7.10;99.90;;;;;;4917210;29;20214;-73
2023/10/15 07:20:14;;;;;;;0.95;0.75;;;7.10;99.90;;;;;;4916854;29;20692;-73
2023/10/15 07:22:42;;;;;;;2.40;2.30;;;7.10;99.90;;;;;;4917342;29;20210;-73
2023/10/15 07:25:10;;;;;;;0.93;0.75;;;7.10;99.90;;;;;;4917111;29;20357;-73
2023/10/15 07:27:37;;;;;;;1.67;0.90;;;7.10;99.90;;;;;;4917111;29;20210;-73
2023/10/15 07:30:06;;;;;;;1.10;1.10;;;7.10;99.90;;;;;;4916941;29;20641;-73
2023/10/15 07:32:34;;;;;;;0.85;0.85;;;7.10;99.90;;;;;;4916824;29;20680;-73
2023/10/15 07:35:02;;;;;;;4.18;0.85;;;7.20;99.90;;;;;;4917136;29;20206;-73
2023/10/15 07:37:29;;;;;;;0.68;0.68;;;7.40;99.90;;;;;;4917276;29;20218;-73
2023/10/15 07:39:56;;;;;;;1.42;1.00;;;7.50;99.90;;;;;;4916713;29;20234;-73
2023/10/15 07:42:23;;;;;;;0.75;0.75;;;7.50;99.90;;;;;;4916396;29;20234;-73
2023/10/15 07:44:50;;;;;;;0.70;0.70;;;7.50;99.90;;;;;;4915736;29;20211;-73
2023/10/15 07:47:16;;;;;;;0.60;0.60;;;7.60;99.90;;;;;;4916594;29;20673;-73
2023/10/15 07:49:43;;;;;;;0.77;0.77;;;7.70;99.90;;;;;;4916861;29;20211;-72
2023/10/15 07:52:11;;;;;;;0.93;0.93;;;7.70;99.90;;;;;;4916427;29;20627;-73
2023/10/15 07:54:38;;;;;;;0.80;0.80;;;7.80;99.90;;;;;;4916710;29;20214;-72
2023/10/15 07:57:07;;;;;;;2.10;0.70;;;7.90;99.90;;;;;;4916293;29;20218;-73
2023/10/15 07:59:34;;;;;;;0.98;0.98;;;8.00;99.90;;;;;;4916250;29;20230;-73
2023/10/15 08:02:01;;;;;;;0.75;0.65;;;8.00;99.90;;;;;;4915972;29;20866;-73
2023/10/15 08:04:28;;;;;;;0.50;0.50;;;8.00;99.90;;;;;;4916328;29;20310;-73
2023/10/15 08:06:55;;;;;;;1.23;0.55;;;8.00;99.90;;;;;;4916276;29;20211;-73
2023/10/15 08:09:23;;;;;;;0.98;0.90;;;8.00;99.90;;;;;;4916262;29;20222;-73
2023/10/15 08:11:50;;;;;;;0.98;0.50;;;8.00;99.90;;;;;;4916101;29;20234;-73
2023/10/15 08:14:17;;;;;;;2.05;0.40;;;8.00;99.90;;;;;;4915756;29;20296;-73
2023/10/15 08:16:43;;;;;;;0.77;0.45;;;8.10;99.90;;;;;;4916217;29;20317;-73
2023/10/15 08:19:10;;;;;;;0.85;0.43;;;8.10;99.90;;;;;;4916114;29;20234;-72
2023/10/15 08:21:37;;;;;;;0.57;0.57;;;8.10;99.90;;;;;;4916086;29;20234;-72
2023/10/15 08:24:04;;;;;;;1.10;0.40;;;8.10;99.90;;;;;;4916091;29;20588;-72
2023/10/15 08:26:32;;;;;;;1.30;0.30;;;8.10;99.90;;;;;;4915959;29;20293;-72
2023/10/15 08:28:59;;;;;;;0.55;0.55;;;8.00;99.90;;;;;;4915700;29;20215;-72
2023/10/15 08:31:26;;;;;;;0.75;0.52;;;7.90;99.90;;;;;;4915921;29;20250;-72
2023/10/15 08:33:52;;;;;;;1.73;0.85;;;7.90;99.90;;;;;;4916074;29;20218;-73
2023/10/15 08:36:19;;;;;;;0.50;0.50;;;7.80;99.90;;;;;;4915797;29;20218;-73
2023/10/15 08:38:46;;;;;;;0.50;0.47;;;7.80;99.90;;;;;;4915918;29;20234;-73
2023/10/15 08:41:14;;;;;;;0.40;0.35;;;7.80;99.90;;;;;;4916531;29;20665;-73
2023/10/15 08:43:46;;;;;;;0.65;0.47;;;7.80;99.90;;;;;;4915905;29;20219;-73
2023/10/15 08:46:13;;;;;;;0.63;0.63;;;7.80;99.90;;;;;;4915697;29;20266;-72
2023/10/15 08:48:42;;;;;;;0.40;0.40;;;7.80;99.90;;;;;;4915824;29;20206;-72
2023/10/15 08:51:09;;;;;;;1.17;0.43;;;7.70;99.90;;;;;;4915863;29;20263;-73
2023/10/15 08:53:37;;;;;;;0.28;0.28;;;7.70;99.90;;;;;;4915986;29;20214;-72
2023/10/15 08:56:05;;;;;;;0.30;0.30;;;7.70;99.90;;;;;;4915682;29;20276;-72
2023/10/15 08:58:34;;;;;;;0.43;0.43;;;7.70;99.90;;;;;;4919842;29;20234;-72
2023/10/15 09:01:05;;;;;;;0.20;0.20;;;7.70;99.90;;;;;;4919349;29;20250;-73
2023/10/15 09:03:32;;;;;;;0.22;0.22;;;7.70;99.90;;;;;;4919621;29;20222;-72
2023/10/15 09:06:01;;;;;;;0.40;0.40;;;7.70;99.90;;;;;;4919315;29;20685;-72
2023/10/15 09:08:28;;;;;;;0.30;0.30;;;7.70;99.90;;;;;;4919370;29;20242;-72
2023/10/15 09:10:55;;;;;;;0.30;0.30;;;7.70;99.90;;;;;;4919596;29;20261;-72
2023/10/15 09:13:25;;;;;;;1.95;0.25;;;7.70;99.90;;;;;;4919762;29;20206;-71
2023/10/15 09:15:55;;;;;;;1.13;0.40;;;7.80;99.90;;;;;;4919626;29;20233;-70
2023/10/15 09:18:26;;;;;;;0.32;0.32;;;7.90;99.90;;;;;;4919506;29;20234;-71
2023/10/15 09:20:53;;;;;;;0.95;0.40;;;8.00;99.90;;;;;;4919452;29;20242;-71
2023/10/15 09:23:21;;;;;;;0.20;0.20;;;8.00;99.90;;;;;;4919260;29;20218;-71
2023/10/15 09:25:52;;;;;;;4.20;0.95;;;8.10;99.90;;;;;;4911637;29;20222;-71
2023/10/15 09:28:19;;;;;;;1.50;1.40;;;8.20;99.90;;;;;;4912541;29;20242;-71
2023/10/15 09:30:46;;;;;;;0.80;0.63;;;8.40;99.90;;;;;;4911351;29;20241;-71
2023/10/15 09:33:16;;;;;;;0.25;0.25;;;8.50;99.90;;;;;;4919160;29;20211;-71
2023/10/15 09:35:45;;;;;;;1.65;1.52;;;8.70;99.90;;;;;;4919129;29;20652;-71
2023/10/15 09:38:13;;;;;;;1.20;0.50;;;8.90;99.90;;;;;;4919329;29;20266;-71
2023/10/15 09:40:43;;;;;;;1.08;0.50;;;8.90;99.90;;;;;;4919063;29;20227;-69
2023/10/15 09:43:10;;;;;;;0.85;0.50;;;8.90;99.90;;;;;;4901195;29;20302;-70
2023/10/15 09:45:37;;;;;;;0.55;0.55;;;8.90;99.90;;;;;;4900499;29;20218;-69
2023/10/15 09:48:05;;;;;;;0.30;0.30;;;9.00;99.90;;;;;;4917358;29;20238;-70
2023/10/15 09:50:38;;;;;;;0.45;0.40;;;9.00;99.90;;;;;;4919012;29;20231;-71
2023/10/15 09:53:10;;;;;;;0.38;0.35;;;8.90;99.90;;;;;;4917381;29;20266;-70
2023/10/15 09:55:37;;;;;;;0.77;0.75;;;8.80;99.90;;;;;;4900249;29;20221;-73
2023/10/15 09:58:06;;;;;;;1.10;0.90;;;8.70;99.90;;;;;;4917402;29;20584;-73
2023/10/15 10:00:47;;;;;;;0.93;0.93;;;8.70;99.90;;;;;;4918222;29;20249;-73
2023/10/15 10:03:59;;;;;;;2.33;2.22;;;8.60;99.90;;;;;;4919099;29;20226;-73
2023/10/15 10:06:40;;;;;;;0.77;0.77;;;8.50;99.90;;;;;;4919306;29;20744;-73
2023/10/15 10:09:36;;;;;;;0.57;0.57;;;8.40;99.90;;;;;;4917689;29;20221;-73
2023/10/15 10:12:19;;;;;;;0.70;0.70;;;8.40;99.90;;;;;;4918533;29;20235;-73
2023/10/15 10:15:11;;;;;;;0.50;0.50;;;8.50;99.90;;;;;;4918485;29;20686;-73
2023/10/15 10:17:39;;;;;;;3.22;0.63;;;8.60;99.90;;;;;;4918550;29;20233;-72
2023/10/15 10:20:11;;;;;;;0.30;0.30;;;8.80;99.90;;;;;;4918506;29;20605;-71
2023/10/15 10:22:39;;;;;;;0.88;0.88;;;9.00;99.90;;;;;;4918653;29;20564;-71
2023/10/15 10:25:11;;;;;;;0.40;0.40;;;9.20;99.90;;;;;;4918112;29;20211;-71
2023/10/15 10:27:42;;;;;;;1.65;1.55;;;9.30;99.90;;;;;;4918017;29;20250;-71
2023/10/15 10:30:27;;;;;;;0.45;0.45;;;9.30;99.90;;;;;;4918133;29;20222;-71
2023/10/15 10:32:56;;;;;;;0.45;0.40;;;9.20;99.90;;;;;;4918310;29;20271;-71
2023/10/15 10:35:23;;;;;;;0.52;0.52;;;9.10;99.90;;;;;;4917925;29;20221;-71
2023/10/15 10:38:05;;;;;;;1.52;0.70;;;9.00;99.90;;;;;;4917909;29;20266;-71
2023/10/15 10:40:50;;;;;;;1.27;1.17;;;9.00;99.90;;;;;;4917731;29;20882;-71
2023/10/15 10:43:19;;;;;;;0.47;0.47;;;9.00;99.90;;;;;;4916565;29;20214;-71
2023/10/15 10:45:56;;;;;;;0.40;0.40;;;8.90;99.90;;;;;;4917578;29;20214;-71
2023/10/15 10:48:24;;;;;;;0.40;0.40;;;8.80;99.90;;;;;;4917685;29;20646;-71
2023/10/15 10:51:13;;;;;;;0.57;0.57;;;8.80;99.90;;;;;;4917865;29;20235;-71
2023/10/15 10:53:40;;;;;;;0.43;0.43;;;8.80;99.90;;;;;;4918090;29;20215;-71
2023/10/15 10:56:08;;;;;;;0.43;0.43;;;8.80;99.90;;;;;;4917771;29;20214;-71
2023/10/15 10:58:37;;;;;;;2.17;0.80;;;8.90;99.90;;;;;;4917506;29;20225;-71
2023/10/15 11:01:06;;;;;;;1.20;1.10;;;9.00;99.90;;;;;;4917161;29;20250;-71
2023/10/15 11:03:33;;;;;;;1.15;1.15;;;9.10;99.90;;;;;;4917494;29;20215;-71
2023/10/15 11:06:00;;;;;;;1.00;1.00;;;9.20;99.90;;;;;;4917375;29;20218;-71
2023/10/15 11:08:27;;;;;;;2.20;0.50;;;9.40;99.90;;;;;;4917444;29;20326;-71
2023/10/15 11:10:53;;;;;;;2.38;1.17;;;9.50;99.90;;;;;;4917256;29;20583;-71
2023/10/15 11:13:22;;;;;;;1.52;0.52;;;9.60;99.90;;;;;;4917140;29;20222;-71
2023/10/15 11:15:50;;;;;;;1.70;0.70;;;9.80;99.90;;;;;;4917370;29;20241;-73
2023/10/15 11:18:21;;;;;;;1.05;0.40;;;9.90;99.90;;;;;;4917380;29;20219;-71
2023/10/15 11:20:50;;;;;;;3.00;2.10;;;9.80;99.90;;;;;;4916667;29;20249;-71
2023/10/15 11:23:17;;;;;;;1.13;0.68;;;9.80;99.90;;;;;;4917119;29;20222;-71
2023/10/15 11:25:44;;;;;;;0.43;0.43;;;9.70;99.90;;;;;;4917024;29;20289;-71
2023/10/15 11:28:12;;;;;;;0.40;0.40;;;9.60;99.90;;;;;;4917298;29;20214;-72
2023/10/15 11:30:41;;;;;;;1.00;0.70;;;9.50;99.90;;;;;;4917138;29;20230;-72
2023/10/15 11:33:09;;;;;;;3.70;0.70;;;9.40;99.90;;;;;;4916709;29;20270;-72
2023/10/15 11:35:36;;;;;;;0.75;0.75;;;9.40;99.90;;;;;;4916719;29;20238;-72
2023/10/15 11:38:07;;;;;;;1.42;0.70;;;9.40;99.90;;;;;;4916717;29;20215;-71
2023/10/15 11:40:37;;;;;;;0.75;0.75;;;9.40;99.90;;;;;;4916529;29;20326;-71
2023/10/15 11:43:09;;;;;;;1.25;0.90;;;9.50;99.90;;;;;;4916990;29;20631;-71
2023/10/15 11:45:37;;;;;;;0.82;0.82;;;9.50;99.90;;;;;;4916570;29;20207;-71
2023/10/15 11:48:11;;;;;;;1.85;1.63;;;9.60;99.90;;;;;;4916617;29;20587;-71
2023/10/15 11:50:40;;;;;;;0.95;0.95;;;9.60;99.90;;;;;;4917075;29;20289;-71
2023/10/15 11:53:16;;;;;;;0.70;0.65;;;9.60;99.90;;;;;;4916662;29;20270;-71
2023/10/15 11:55:47;;;;;;;0.90;0.90;;;9.60;99.90;;;;;;4916321;29;20214;-71
2023/10/15 11:58:16;;;;;;;2.55;2.10;;;9.60;99.90;;;;;;4916182;29;20285;-71
2023/10/15 12:00:47;;;;;;;1.48;1.38;;;9.70;99.90;;;;;;4916149;29;20321;-71
2023/10/15 12:03:16;;;;;;;1.65;1.65;;;9.70;99.90;;;;;;4916545;29;20772;-71
2023/10/15 12:05:43;;;;;;;0.88;0.88;;;9.70;99.90;;;;;;4916036;29;20214;-71
2023/10/15 12:08:12;;;;;;;0.80;0.80;;;9.70;99.90;;;;;;4916018;29;20682;-72
2023/10/15 12:10:41;;;;;;;2.08;0.82;;;9.70;99.90;;;;;;4916181;29;20234;-71
2023/10/15 12:13:08;;;;;;;0.75;0.75;;;9.70;99.90;;;;;;4916109;29;20217;-71
2023/10/15 12:15:34;;;;;;;1.20;0.60;;;9.70;99.90;;;;;;4916060;29;20222;-72
2023/10/15 12:18:02;;;;;;;0.60;0.60;;;9.80;99.90;;;;;;4916075;29;20581;-71
2023/10/15 12:20:30;;;;;;;0.60;0.60;;;9.80;99.90;;;;;;4916042;29;20234;-71
2023/10/15 12:22:57;;;;;;;0.60;0.60;;;9.90;99.90;;;;;;4916376;29;20218;-71
2023/10/15 12:25:24;;;;;;;0.95;0.95;;;10.00;99.90;;;;;;4915908;29;20218;-71
2023/10/15 12:27:51;;;;;;;1.30;1.20;;;10.10;99.90;;;;;;4915799;29;20673;-71
2023/10/15 12:30:23;;;;;;;0.50;0.50;;;10.30;99.90;;;;;;4916230;29;20676;-71
2023/10/15 12:32:50;;;;;;;0.80;0.80;;;10.40;99.90;;;;;;4915942;29;20218;-71
2023/10/15 12:35:19;;;;;;;1.10;1.10;;;10.40;99.90;;;;;;4916294;29;20214;-71
2023/10/15 12:37:47;;;;;;;0.85;0.77;;;10.40;99.90;;;;;;4915893;29;20274;-71
2023/10/15 12:40:21;;;;;;;2.40;0.70;;;10.60;99.90;;;;;;4915703;29;20242;-71
2023/10/15 12:42:48;;;;;;;0.93;0.70;;;10.60;99.90;;;;;;4915979;29;20680;-71
2023/10/15 12:45:16;;;;;;;1.85;0.57;;;10.60;99.90;;;;;;4915605;29;20218;-71
2023/10/15 12:47:43;;;;;;;1.05;0.68;;;10.60;99.90;;;;;;4916033;29;20218;-71
2023/10/15 12:50:14;;;;;;;2.67;0.85;;;10.60;99.90;;;;;;4915768;29;20214;-71
2023/10/15 12:52:41;;;;;;;2.28;0.65;;;10.50;99.90;;;;;;4915597;29;20218;-71
2023/10/15 12:55:09;;;;;;;1.02;0.60;;;10.60;99.90;;;;;;4915268;29;20214;-71
2023/10/15 12:57:36;;;;;;;1.58;0.50;;;10.70;99.90;;;;;;4915196;29;20225;-71
2023/10/15 13:00:11;;;;;;;4.45;1.00;;;10.70;99.90;;;;;;4915542;29;20289;-71
2023/10/15 13:02:38;;;;;;;2.13;0.90;;;10.80;99.90;;;;;;4915674;29;20658;-72
2023/10/15 13:05:05;;;;;;;3.35;0.60;;;10.80;99.90;;;;;;4916636;29;20225;-71
2023/10/15 13:07:32;;;;;;;1.90;0.68;;;10.80;99.90;;;;;;4917805;29;20270;-71
2023/10/15 13:09:59;;;;;;;0.52;0.52;;;10.80;99.90;;;;;;4915722;29;20298;-71
2023/10/15 13:12:27;;;;;;;0.93;0.47;;;10.80;99.90;;;;;;4915339;29;20257;-71
2023/10/15 13:14:53;;;;;;;0.50;0.40;;;10.80;99.90;;;;;;4915459;29;20230;-71
2023/10/15 13:17:20;;;;;;;0.63;0.60;;;10.70;99.90;;;;;;4915553;29;20217;-71
2023/10/15 13:19:47;;;;;;;0.30;0.30;;;10.60;99.90;;;;;;4915386;29;20235;-71
2023/10/15 13:22:13;;;;;;;0.75;0.75;;;10.50;99.90;;;;;;4915206;29;20313;-71
2023/10/15 13:24:40;;;;;;;0.50;0.50;;;10.40;99.90;;;;;;4915064;29;20625;-71
2023/10/15 13:27:07;;;;;;;0.35;0.35;;;10.40;99.90;;;;;;4915403;29;20218;-72
2023/10/15 13:29:35;;;;;;;0.40;0.40;;;10.40;99.90;;;;;;4915391;29;20226;-72
2023/10/15 13:32:02;;;;;;;0.75;0.32;;;10.40;99.90;;;;;;4915074;29;20751;-72
2023/10/15 13:34:29;;;;;;;1.02;0.90;;;10.50;99.90;;;;;;4915262;29;20583;-72
2023/10/15 13:36:56;;;;;;;1.70;1.60;;;10.50;99.90;;;;;;4914915;29;20669;-72
2023/10/15 13:39:23;;;;;;;0.68;0.60;;;10.50;99.90;;;;;;4915322;29;20219;-73
2023/10/15 13:41:50;;;;;;;0.82;0.55;;;10.50;99.90;;;;;;4915248;29;20325;-73
2023/10/15 13:44:17;;;;;;;0.55;0.55;;;10.50;99.90;;;;;;4918909;29;20303;-73
2023/10/15 13:46:47;;;;;;;2.15;0.90;;;10.50;99.90;;;;;;4918711;29;20222;-73
2023/10/15 13:49:14;;;;;;;1.42;0.75;;;10.50;99.90;;;;;;4918712;29;20243;-73
2023/10/15 13:51:42;;;;;;;1.30;0.85;;;10.50;99.90;;;;;;4918434;29;20713;-73
2023/10/15 13:54:09;;;;;;;1.95;0.55;;;10.50;99.90;;;;;;4918715;29;20252;-73
2023/10/15 13:56:36;;;;;;;0.90;0.90;;;10.50;99.90;;;;;;4918586;29;20215;-73
2023/10/15 13:59:03;;;;;;;1.30;0.77;;;10.50;99.90;;;;;;4918222;29;20696;-73
2023/10/15 14:01:32;;;;;;;0.40;0.40;;;10.50;99.90;;;;;;4918147;29;20238;-73
2023/10/15 14:04:00;;;;;;;0.60;0.60;;;10.40;99.90;;;;;;4918307;29;20236;-73
2023/10/15 14:06:28;;;;;;;2.58;0.47;;;10.40;99.90;;;;;;4918214;29;20577;-73
2023/10/15 14:08:55;;;;;;;1.58;0.88;;;10.40;99.90;;;;;;4918459;29;20245;-73
2023/10/15 14:11:21;;;;;;;1.73;1.63;;;10.40;99.90;;;;;;4918377;29;20598;-72
2023/10/15 14:13:49;;;;;;;0.90;0.50;;;10.40;99.90;;;;;;4918315;29;20681;-72
2023/10/15 14:16:16;;;;;;;1.70;1.70;;;10.40;99.90;;;;;;4918122;29;20225;-72
2023/10/15 14:18:43;;;;;;;1.38;1.30;;;10.40;99.90;;;;;;4918176;29;20214;-72
2023/10/15 14:21:11;;;;;;;2.95;1.05;;;10.50;99.90;;;;;;4917947;29;20333;-72
2023/10/15 14:23:39;;;;;;;2.95;1.55;;;10.60;99.90;;;;;;4918394;29;20230;-72
2023/10/15 14:26:06;;;;;;;1.30;0.80;;;10.60;99.90;;;;;;4917985;29;20226;-72
2023/10/15 14:28:32;;;;;;;1.10;1.10;;;10.50;99.90;;;;;;4918389;29;20570;-72
2023/10/15 14:30:59;;;;;;;0.77;0.77;;;10.60;99.90;;;;;;4917944;29;20231;-72
2023/10/15 14:33:26;;;;;;;1.02;0.80;;;10.60;99.90;;;;;;4917852;29;20215;-72
2023/10/15 14:35:53;;;;;;;0.73;0.40;;;10.50;99.90;;;;;;4917911;29;20701;-73
2023/10/15 14:38:21;;;;;;;1.95;0.82;;;10.50;99.90;;;;;;4918052;29;20270;-73
2023/10/15 14:40:48;;;;;;;1.75;1.13;;;10.50;99.90;;;;;;4917849;29;20248;-73
2023/10/15 14:43:15;;;;;;;0.70;0.70;;;10.60;99.90;;;;;;4917875;29;20221;-72
2023/10/15 14:45:41;;;;;;;2.15;0.63;;;10.60;99.90;;;;;;4911205;29;20589;-72
2023/10/15 14:48:10;;;;;;;0.90;0.90;;;10.70;99.90;;;;;;4916263;29;20237;-72
2023/10/15 14:50:37;;;;;;;2.47;0.50;;;10.60;99.90;;;;;;4917770;29;20234;-72
2023/10/15 14:53:05;;;;;;;0.93;0.65;;;10.60;99.90;;;;;;4917737;29;20222;-72
2023/10/15 14:55:34;;;;;;;2.67;0.70;;;10.50;99.90;;;;;;4917125;29;20214;-72
2023/10/15 14:58:01;;;;;;;1.23;0.73;;;10.40;99.90;;;;;;4917590;29;20221;-72
2023/10/15 15:00:28;;;;;;;0.77;0.70;;;10.30;99.90;;;;;;4917235;29;20253;-72
2023/10/15 15:02:55;;;;;;;2.55;0.77;;;10.20;99.90;;;;;;4917645;29;20238;-72
2023/10/15 15:05:21;;;;;;;0.88;0.88;;;10.20;99.90;;;;;;4917440;29;20218;-72
2023/10/15 15:07:48;;;;;;;1.08;0.80;;;10.20;99.90;;;;;;4917427;29;20213;-73
2023/10/15 15:10:15;;;;;;;0.93;0.70;;;10.20;99.90;;;;;;4917186;29;20226;-72
2023/10/15 15:12:44;;;;;;;1.55;1.00;;;10.20;99.90;;;;;;4917136;29;20223;-72
2023/10/15 15:15:13;;;;;;;1.67;1.17;;;10.20;99.90;;;;;;4916659;29;20214;-72
2023/10/15 15:17:40;;;;;;;0.95;0.70;;;10.20;99.90;;;;;;4917261;29;20704;-72
2023/10/15 15:20:08;;;;;;;1.67;0.60;;;10.10;99.90;;;;;;4916761;29;20225;-73
2023/10/15 15:22:36;;;;;;;2.58;0.80;;;10.00;99.90;;;;;;4916898;29;20214;-73
2023/10/15 15:25:02;;;;;;;1.33;0.88;;;10.10;99.90;;;;;;4916857;29;20218;-72
2023/10/15 15:27:29;;;;;;;2.05;0.65;;;10.10;99.90;;;;;;4916638;29;20681;-72
2023/10/15 15:29:57;;;;;;;1.95;0.65;;;10.10;99.90;;;;;;4916909;29;20709;-72
2023/10/15 15:32:27;;;;;;;1.00;1.00;;;10.10;99.90;;;;;;4916979;29;20268;-72
2023/10/15 15:34:53;;;;;;;1.33;0.40;;;10.00;99.90;;;;;;4916704;29;20221;-72
2023/10/15 15:37:20;;;;;;;0.90;0.90;;;10.00;99.90;;;;;;4909762;29;20214;-73
2023/10/15 15:39:47;;;;;;;5.45;1.00;;;10.00;99.90;;;;;;4916806;29;20225;-72
2023/10/15 15:42:15;;;;;;;2.15;0.55;;;9.90;99.90;;;;;;4905947;29;20251;-72
2023/10/15 15:44:43;;;;;;;1.10;1.10;;;9.90;99.90;;;;;;4912267;29;20242;-73
2023/10/15 15:47:12;;;;;;;0.60;0.60;;;9.90;99.90;;;;;;4916469;29;20219;-72
2023/10/15 15:49:40;;;;;;;1.35;1.27;;;9.90;99.90;;;;;;4916627;29;20309;-72
2023/10/15 15:52:09;;;;;;;0.68;0.68;;;9.80;99.90;;;;;;4916128;29;20704;-72
2023/10/15 15:54:36;;;;;;;0.95;0.55;;;9.70;99.90;;;;;;4916246;29;20248;-72
2023/10/15 15:57:03;;;;;;;1.38;0.68;;;9.60;99.90;;;;;;4916346;29;20259;-72
2023/10/15 15:59:30;;;;;;;2.30;0.50;;;9.60;99.90;;;;;;4916490;29;20219;-72
2023/10/15 16:01:57;;;;;;;0.70;0.70;;;9.50;99.90;;;;;;4915842;29;20250;-72
2023/10/15 16:04:24;;;;;;;0.93;0.50;;;9.40;99.90;;;;;;4916203;29;20237;-72
2023/10/15 16:06:51;;;;;;;1.45;1.33;;;9.40;99.90;;;;;;4915231;29;20215;-72
2023/10/15 16:09:18;;;;;;;0.50;0.50;;;9.30;99.90;;;;;;4916189;29;20218;-72
2023/10/15 16:11:45;;;;;;;3.58;1.05;;;9.30;99.90;;;;;;4915923;29;20234;-72
2023/10/15 16:14:11;;;;;;;1.15;0.95;;;9.30;99.90;;;;;;4916149;29;20210;-72
2023/10/15 16:16:38;;;;;;;1.58;1.40;;;9.20;99.90;;;;;;4916463;29;20657;-72
2023/10/15 16:19:06;;;;;;;1.10;1.10;;;9.20;99.90;;;;;;4916074;29;20214;-71
2023/10/15 16:21:34;;;;;;;1.92;0.80;;;9.10;99.90;;;;;;4915595;29;20257;-71
2023/10/15 16:24:02;;;;;;;3.15;0.80;;;9.10;99.90;;;;;;4915916;29;20591;-71
2023/10/15 16:26:28;;;;;;;1.08;1.08;;;9.10;99.90;;;;;;4915668;29;20680;-72
2023/10/15 16:28:55;;;;;;;5.50;1.02;;;9.10;99.90;;;;;;4915792;29;20245;-71
2023/10/15 16:31:22;;;;;;;3.35;1.50;;;9.10;99.90;;;;;;4915648;29;20777;-71
2023/10/15 16:33:49;;;;;;;1.13;1.13;;;9.10;99.90;;;;;;4915812;29;20254;-72
2023/10/15 16:36:15;;;;;;;2.50;1.55;;;9.10;99.90;;;;;;4915522;29;20241;-72
2023/10/15 16:38:43;;;;;;;2.33;2.00;;;9.10;99.90;;;;;;4908425;29;20218;-72
2023/10/15 16:41:11;;;;;;;1.48;0.70;;;9.10;99.90;;;;;;4915357;29;20243;-72
2023/10/15 16:43:38;;;;;;;1.23;1.20;;;9.10;99.90;;;;;;4915850;29;20214;-72
2023/10/15 16:46:05;;;;;;;1.08;1.08;;;9.00;99.90;;;;;;4907762;29;20245;-72
2023/10/15 16:48:32;;;;;;;0.77;0.77;;;9.00;99.90;;;;;;4915834;29;20656;-72
2023/10/15 16:50:59;;;;;;;1.08;1.08;;;8.90;99.90;;;;;;4915351;29;20226;-72
2023/10/15 16:53:26;;;;;;;2.15;1.27;;;8.90;99.90;;;;;;4908080;29;20571;-72
2023/10/15 16:55:54;;;;;;;1.10;0.95;;;8.80;99.90;;;;;;4915656;29;20210;-72
2023/10/15 16:58:22;;;;;;;1.55;1.55;;;8.70;99.90;;;;;;4911918;29;20686;-72
2023/10/15 17:00:49;;;;;;;1.58;1.58;;;8.70;99.90;;;;;;4911634;29;20306;-73
2023/10/15 17:03:16;;;;;;;2.78;0.80;;;8.60;99.90;;;;;;4916645;29;20355;-73
2023/10/15 17:05:42;;;;;;;2.15;1.05;;;8.60;99.90;;;;;;4915858;29;20236;-72